Time;durP1;ratioP1;P1;durP2;ratioP2;P2;SDS_P1;SDS_P2;PMS_P1;PMS_P2;Temp;Humidity;BMP_temperature;BMP_pressure;BME280_temperature;BME280_humidity;BME280_pressure;Samples;Min_cycle;Max_cycle;Signal;HPM_P1;HPM_P2
2022/04/02 00:00:41;;;;;;;4.70;4.10;;;1.80;1.00;;;;;;6268181;28;20573;-53
2022/04/02 00:03:44;;;;;;;4.20;3.93;;;1.80;1.00;;;;;;6283833;28;20827;-53
2022/04/02 00:06:48;;;;;;;4.83;4.53;;;1.80;1.00;;;;;;6267520;28;20252;-53
2022/04/02 00:09:51;;;;;;;4.93;4.50;;;1.70;1.00;;;;;;6279463;28;20511;-52
2022/04/02 00:12:55;;;;;;;4.90;4.50;;;1.90;1.00;;;;;;6292841;28;20309;-54
2022/04/02 00:15:59;;;;;;;4.30;4.10;;;1.80;1.00;;;;;;6272929;28;20234;-54
2022/04/02 00:19:01;;;;;;;5.27;4.70;;;1.90;1.00;;;;;;6258409;28;20260;-53
2022/04/02 00:22:05;;;;;;;5.27;4.53;;;1.70;1.00;;;;;;6261651;28;20317;-52
2022/04/02 00:25:09;;;;;;;5.00;4.70;;;1.60;1.00;;;;;;6275746;28;20316;-53
2022/04/02 00:28:12;;;;;;;4.43;4.30;;;1.50;1.00;;;;;;6278656;28;20542;-53
2022/04/02 00:31:15;;;;;;;4.93;4.53;;;1.40;1.00;;;;;;6283873;28;20240;-53
2022/04/02 00:34:18;;;;;;;5.53;5.10;;;1.40;1.00;;;;;;6283385;28;20245;-52
2022/04/02 00:37:22;;;;;;;4.93;4.63;;;1.60;1.00;;;;;;6283988;28;20241;-52
2022/04/02 00:40:29;;;;;;;5.43;5.17;;;1.60;1.00;;;;;;6283691;28;20253;-52
2022/04/02 00:43:34;;;;;;;5.70;5.20;;;1.70;1.00;;;;;;6264090;28;20246;-52
2022/04/02 00:46:37;;;;;;;5.30;5.03;;;1.50;1.00;;;;;;6259093;28;20726;-52
2022/04/02 00:49:40;;;;;;;5.40;5.20;;;1.60;1.00;;;;;;6258340;28;20238;-53
2022/04/02 00:52:44;;;;;;;5.30;5.00;;;1.00;1.00;;;;;;6258791;28;20248;-53
2022/04/02 00:55:47;;;;;;;5.80;5.40;;;1.30;1.00;;;;;;6271775;28;20329;-56
2022/04/02 00:58:50;;;;;;;5.63;4.90;;;1.50;1.00;;;;;;6271799;28;20280;-55
2022/04/02 01:01:53;;;;;;;5.37;5.10;;;1.20;1.00;;;;;;6259086;28;20590;-55
2022/04/02 01:04:57;;;;;;;5.40;5.07;;;1.30;1.00;;;;;;6273150;28;20236;-52
2022/04/02 01:08:04;;;;;;;5.03;4.83;;;1.50;1.00;;;;;;6271418;28;20232;-53
2022/04/02 01:11:07;;;;;;;5.20;4.90;;;1.40;1.00;;;;;;6282976;28;20541;-53
2022/04/02 01:14:11;;;;;;;5.23;4.83;;;1.40;1.00;;;;;;6282513;28;20836;-53
2022/04/02 01:17:14;;;;;;;5.37;5.07;;;1.30;1.00;;;;;;6258100;28;20390;-53
2022/04/02 01:20:18;;;;;;;5.50;4.90;;;1.40;1.00;;;;;;6258525;28;20602;-54
2022/04/02 01:23:29;;;;;;;5.20;4.80;;;1.20;1.00;;;;;;6257688;28;20597;-53
2022/04/02 01:26:32;;;;;;;5.40;4.93;;;1.20;1.00;;;;;;6281734;28;20848;-53
2022/04/02 01:29:35;;;;;;;4.97;4.60;;;1.10;1.00;;;;;;6278360;28;20310;-52
2022/04/02 01:32:38;;;;;;;4.97;4.67;;;1.40;1.00;;;;;;6266456;28;20233;-53
2022/04/02 01:35:41;;;;;;;5.20;4.90;;;1.20;1.00;;;;;;6282239;28;20664;-53
2022/04/02 01:38:45;;;;;;;5.27;4.97;;;1.20;1.00;;;;;;6282032;28;20236;-53
2022/04/02 01:41:48;;;;;;;5.17;4.83;;;1.10;1.00;;;;;;6257830;28;20514;-53
2022/04/02 01:44:52;;;;;;;5.50;4.93;;;1.20;1.00;;;;;;6258451;28;20561;-53
2022/04/02 01:47:55;;;;;;;5.33;4.83;;;1.20;1.00;;;;;;6257874;28;20323;-54
2022/04/02 01:50:58;;;;;;;5.90;5.40;;;1.10;1.00;;;;;;6282717;28;20719;-53
2022/04/02 01:54:02;;;;;;;4.97;4.77;;;1.00;1.00;;;;;;6282147;28;20241;-54
2022/04/02 01:57:05;;;;;;;4.80;4.60;;;1.30;1.00;;;;;;6282825;28;20233;-52
2022/04/02 02:00:09;;;;;;;5.70;5.30;;;1.30;1.00;;;;;;6258953;28;20367;-53
2022/04/02 02:03:12;;;;;;;5.57;5.03;;;1.40;1.00;;;;;;6260441;28;20238;-52
2022/04/02 02:06:16;;;;;;;5.30;4.90;;;1.20;1.00;;;;;;6280515;28;20260;-54
2022/04/02 02:09:21;;;;;;;5.97;5.10;;;1.10;1.00;;;;;;6276880;28;20366;-53
2022/04/02 02:12:23;;;;;;;5.87;5.30;;;1.30;1.00;;;;;;6281976;28;20248;-54
2022/04/02 02:15:27;;;;;;;5.23;4.83;;;1.20;1.00;;;;;;6272463;28;20744;-54
2022/04/02 02:18:29;;;;;;;5.47;5.07;;;1.30;1.00;;;;;;6258524;28;20291;-53
2022/04/02 02:21:32;;;;;;;4.53;4.40;;;1.20;1.00;;;;;;6257584;28;20496;-53
2022/04/02 02:24:36;;;;;;;5.63;5.20;;;1.30;1.00;;;;;;6260080;28;20241;-53
2022/04/02 02:27:39;;;;;;;5.53;5.23;;;1.10;1.00;;;;;;6282001;28;20314;-52
2022/04/02 02:30:42;;;;;;;5.03;4.77;;;1.00;1.00;;;;;;6282179;28;20243;-52
2022/04/02 02:37:05;;;;;;;4.73;4.50;;;1.20;1.00;;;;;;6281194;28;20276;-53
2022/04/02 02:40:11;;;;;;;5.60;5.10;;;1.50;1.00;;;;;;6277755;28;20509;-52
2022/04/02 02:43:14;;;;;;;5.27;4.83;;;1.60;1.00;;;;;;6285532;28;20244;-53
2022/04/02 02:46:18;;;;;;;6.50;5.10;;;1.50;1.00;;;;;;6279201;28;20287;-53
2022/04/02 02:49:21;;;;;;;7.70;5.00;;;1.50;1.00;;;;;;6260843;28;20234;-52
2022/04/02 02:52:24;;;;;;;5.60;4.83;;;1.50;1.00;;;;;;6261509;28;20325;-52
2022/04/02 02:55:28;;;;;;;5.20;4.83;;;1.20;1.00;;;;;;6260613;28;20746;-53
2022/04/02 02:58:31;;;;;;;5.60;5.10;;;1.50;1.00;;;;;;6260544;28;20237;-53
2022/04/02 03:01:34;;;;;;;5.30;4.80;;;1.50;1.00;;;;;;6261425;28;20348;-52
2022/04/02 03:04:37;;;;;;;5.57;4.70;;;1.60;1.00;;;;;;6273695;28;20241;-53
2022/04/02 03:07:48;;;;;;;5.07;4.63;;;1.50;1.00;;;;;;6285359;28;20291;-52
2022/04/02 03:10:53;;;;;;;4.93;4.73;;;1.40;1.00;;;;;;6285949;28;20607;-53
2022/04/02 03:13:56;;;;;;;4.80;4.50;;;1.50;1.00;;;;;;6267374;28;20402;-53
2022/04/02 03:16:58;;;;;;;5.00;4.70;;;1.30;1.00;;;;;;6281669;28;20236;-53
2022/04/02 03:20:01;;;;;;;4.80;4.60;;;1.40;1.00;;;;;;6285227;28;20224;-54
2022/04/02 03:23:04;;;;;;;4.40;4.30;;;1.40;1.00;;;;;;6270098;28;20394;-53
2022/04/02 03:26:08;;;;;;;4.20;4.10;;;1.60;1.00;;;;;;6274612;28;20267;-53
2022/04/02 03:29:11;;;;;;;4.93;4.53;;;1.30;1.00;;;;;;6285060;28;20562;-53
2022/04/02 03:32:14;;;;;;;5.10;4.60;;;1.40;1.00;;;;;;6269670;28;20797;-53
2022/04/02 03:35:17;;;;;;;4.73;4.33;;;1.50;1.00;;;;;;6291411;28;20659;-52
2022/04/02 03:38:20;;;;;;;4.70;4.53;;;1.60;1.00;;;;;;6279919;28;20264;-54
2022/04/02 03:41:26;;;;;;;4.87;4.60;;;1.50;1.00;;;;;;6279064;28;20285;-53
2022/04/02 03:44:28;;;;;;;4.40;4.20;;;1.60;1.00;;;;;;6276512;28;20230;-52
2022/04/02 03:47:31;;;;;;;4.90;4.50;;;1.50;1.00;;;;;;6291831;28;20249;-51
2022/04/02 03:50:34;;;;;;;4.20;4.10;;;1.60;1.00;;;;;;6280111;28;20256;-53
2022/04/02 03:53:37;;;;;;;7.33;4.50;;;1.40;1.00;;;;;;6286025;28;20284;-52
2022/04/02 03:56:41;;;;;;;4.93;4.40;;;1.60;1.00;;;;;;6285869;28;20642;-53
2022/04/02 03:59:46;;;;;;;4.50;4.20;;;1.60;1.00;;;;;;6287442;28;20229;-53
2022/04/02 04:02:48;;;;;;;4.57;4.27;;;1.60;1.00;;;;;;6289528;28;20332;-52
2022/04/02 04:05:51;;;;;;;4.80;4.50;;;1.20;1.00;;;;;;6288379;28;20252;-52
2022/04/02 04:08:56;;;;;;;5.13;4.73;;;1.50;1.00;;;;;;6281511;28;20379;-53
2022/04/02 04:12:01;;;;;;;5.97;4.67;;;1.70;1.00;;;;;;6280770;28;20236;-53
2022/04/02 04:15:04;;;;;;;5.83;4.67;;;1.60;1.00;;;;;;6293412;28;20382;-55
2022/04/02 04:18:08;;;;;;;5.87;4.23;;;1.20;1.00;;;;;;6282118;28;20221;-54
2022/04/02 04:21:14;;;;;;;4.23;3.93;;;1.30;1.00;;;;;;6294264;28;20229;-53
2022/04/02 04:24:17;;;;;;;4.50;4.13;;;1.40;1.00;;;;;;6272073;28;20807;-53
2022/04/02 04:27:21;;;;;;;4.23;4.03;;;1.50;1.00;;;;;;6287628;28;20498;-54
2022/04/02 04:30:24;;;;;;;5.23;4.83;;;1.50;1.00;;;;;;6285336;28;20493;-53
2022/04/02 04:33:27;;;;;;;4.63;4.43;;;1.30;1.00;;;;;;6278179;28;20240;-53
2022/04/02 04:36:30;;;;;;;4.03;3.93;;;1.50;1.00;;;;;;6278720;28;20496;-53
2022/04/02 04:39:32;;;;;;;4.43;4.13;;;1.20;1.00;;;;;;6291874;28;20847;-54
2022/04/02 04:42:36;;;;;;;4.67;4.37;;;1.40;1.00;;;;;;6281932;28;20233;-53
2022/04/02 04:45:39;;;;;;;5.90;4.13;;;1.60;1.00;;;;;;6283480;28;20316;-53
2022/04/02 04:48:42;;;;;;;4.67;4.30;;;1.30;1.00;;;;;;6267049;28;20245;-50
2022/04/02 04:51:45;;;;;;;4.00;3.80;;;1.50;1.00;;;;;;6283909;28;20573;-52
2022/04/02 04:54:48;;;;;;;4.63;4.33;;;1.60;1.00;;;;;;6281165;28;20373;-53
2022/04/02 04:57:52;;;;;;;5.07;4.70;;;1.40;1.00;;;;;;6275317;28;20728;-51
2022/04/02 05:00:56;;;;;;;4.43;4.23;;;1.40;1.00;;;;;;6289553;28;20483;-53
2022/04/02 05:03:59;;;;;;;4.60;4.30;;;1.70;1.00;;;;;;6283658;28;20530;-52
2022/04/02 05:07:02;;;;;;;4.60;4.30;;;1.40;1.00;;;;;;6287109;28;20260;-55
2022/04/02 05:10:07;;;;;;;4.83;4.57;;;1.50;1.00;;;;;;6285095;28;20272;-53
2022/04/02 05:13:12;;;;;;;4.57;4.17;;;1.60;1.00;;;;;;6279153;28;20234;-53
2022/04/02 05:16:16;;;;;;;4.63;4.30;;;1.70;1.00;;;;;;6283506;28;20234;-54
2022/04/02 05:19:20;;;;;;;4.80;4.43;;;1.40;1.00;;;;;;6276167;28;20301;-53
2022/04/02 05:22:23;;;;;;;4.60;4.40;;;1.70;1.00;;;;;;6285862;28;20241;-54
2022/04/02 05:25:26;;;;;;;5.07;4.67;;;1.70;1.00;;;;;;6279822;28;20583;-53
2022/04/02 05:28:30;;;;;;;4.43;4.27;;;1.80;1.00;;;;;;6275794;28;20240;-55
2022/04/02 05:31:32;;;;;;;4.83;4.53;;;1.80;1.00;;;;;;6288951;28;20528;-53
2022/04/02 05:34:35;;;;;;;4.10;3.80;;;1.70;1.00;;;;;;6291656;28;20585;-56
2022/04/02 05:37:44;;;;;;;4.43;4.10;;;1.80;1.00;;;;;;6274878;28;20238;-53
2022/04/02 05:40:47;;;;;;;4.20;4.00;;;2.00;1.00;;;;;;6282047;28;20282;-59
2022/04/02 05:43:52;;;;;;;4.63;4.33;;;2.10;1.00;;;;;;6278128;28;20222;-52
2022/04/02 05:46:54;;;;;;;4.67;4.30;;;2.10;1.00;;;;;;6282244;28;20253;-52
2022/04/02 05:50:19;;;;;;;4.83;4.43;;;2.10;1.00;;;;;;6286255;28;20336;-53
2022/04/02 05:53:39;;;;;;;4.80;4.03;;;2.20;1.00;;;;;;6259546;28;20498;-53
2022/04/02 05:56:43;;;;;;;4.87;4.57;;;2.20;1.00;;;;;;6281137;28;20237;-54
2022/04/02 05:59:47;;;;;;;4.53;4.33;;;2.40;1.00;;;;;;6282839;28;20399;-53
2022/04/02 06:02:50;;;;;;;4.87;4.43;;;2.30;1.00;;;;;;6277958;28;20277;-53
2022/04/02 06:05:52;;;;;;;5.03;4.63;;;2.30;1.00;;;;;;6279413;28;20321;-54
2022/04/02 06:08:55;;;;;;;4.13;3.77;;;2.20;1.00;;;;;;6279744;28;20379;-53
2022/04/02 06:11:59;;;;;;;4.63;4.23;;;2.40;1.00;;;;;;6285511;28;20225;-53
2022/04/02 06:15:03;;;;;;;4.40;4.20;;;2.40;1.00;;;;;;6286322;28;20251;-53
2022/04/02 06:18:07;;;;;;;4.40;4.20;;;2.40;1.00;;;;;;6276144;28;20313;-53
2022/04/02 06:21:11;;;;;;;3.87;3.77;;;2.70;1.00;;;;;;6298935;28;20386;-53
2022/04/02 06:24:14;;;;;;;4.83;4.63;;;2.70;1.00;;;;;;6280328;28;20420;-53
2022/04/02 06:27:17;;;;;;;4.67;3.80;;;2.30;1.00;;;;;;6286014;28;20558;-52
2022/04/02 06:30:22;;;;;;;4.50;4.30;;;3.30;1.00;;;;;;6294096;28;20375;-53
2022/04/02 06:33:29;;;;;;;5.03;4.17;;;3.30;1.00;;;;;;6287049;28;20465;-53
2022/04/02 06:36:31;;;;;;;6.13;4.17;;;3.40;1.00;;;;;;6287494;28;20265;-53
2022/04/02 06:39:34;;;;;;;4.47;4.07;;;3.40;1.00;;;;;;6291076;28;20708;-52
2022/04/02 06:42:38;;;;;;;4.40;4.00;;;3.70;1.00;;;;;;6282014;28;20256;-54
2022/04/02 06:45:42;;;;;;;4.50;4.20;;;3.70;1.00;;;;;;6276125;28;20722;-53
2022/04/02 06:48:44;;;;;;;4.53;4.20;;;3.70;1.00;;;;;;6287905;28;20234;-54
2022/04/02 06:51:47;;;;;;;4.90;4.50;;;3.40;1.00;;;;;;6280515;28;20280;-53
2022/04/02 06:54:50;;;;;;;4.20;3.90;;;4.10;1.00;;;;;;6281502;28;20711;-54
2022/04/02 06:57:56;;;;;;;4.07;3.73;;;4.20;1.00;;;;;;6285646;28;20237;-54
2022/04/02 07:01:00;;;;;;;4.13;3.93;;;4.20;1.00;;;;;;6279256;28;20233;-53
2022/04/02 07:04:02;;;;;;;4.00;3.77;;;4.40;1.00;;;;;;6290760;28;20682;-53
2022/04/02 07:07:05;;;;;;;3.90;3.50;;;4.60;1.00;;;;;;6283121;28;20225;-53
2022/04/02 07:10:09;;;;;;;4.07;3.73;;;4.50;1.00;;;;;;6284870;28;20387;-54
2022/04/02 07:13:12;;;;;;;4.50;3.70;;;4.90;1.00;;;;;;6281077;28;20229;-53
2022/04/02 07:16:17;;;;;;;3.97;3.60;;;5.10;1.00;;;;;;6284712;28;20245;-54
2022/04/02 07:19:22;;;;;;;4.17;3.97;;;4.80;1.00;;;;;;6297280;28;20226;-53
2022/04/02 07:22:27;;;;;;;4.17;3.77;;;4.80;1.00;;;;;;6285231;28;20321;-54
2022/04/02 07:25:30;;;;;;;4.10;3.90;;;5.10;1.00;;;;;;6275070;28;20774;-54
2022/04/02 07:28:33;;;;;;;3.87;3.57;;;5.10;1.00;;;;;;6286200;28;20257;-53
2022/04/02 07:31:37;;;;;;;3.70;3.60;;;5.00;1.00;;;;;;6299161;28;20922;-54
2022/04/02 07:34:40;;;;;;;4.03;3.63;;;5.00;1.00;;;;;;6281392;28;20237;-52
2022/04/02 07:38:01;;;;;;;4.03;3.70;;;5.00;1.00;;;;;;6272732;28;20233;-54
2022/04/02 07:41:14;;;;;;;4.83;3.60;;;4.90;1.00;;;;;;6277851;28;20318;-53
2022/04/02 07:44:30;;;;;;;3.47;3.33;;;4.90;1.00;;;;;;6286846;28;20722;-53
2022/04/02 07:47:35;;;;;;;4.10;3.40;;;5.00;1.00;;;;;;6290380;28;20378;-55
2022/04/02 07:50:42;;;;;;;3.90;3.60;;;4.90;1.00;;;;;;6279305;28;20284;-53
2022/04/02 07:53:47;;;;;;;4.00;3.90;;;5.00;1.00;;;;;;6284599;28;20794;-53
2022/04/02 07:56:52;;;;;;;3.67;3.37;;;5.10;1.00;;;;;;6294580;28;20323;-54
2022/04/02 07:59:59;;;;;;;3.60;3.40;;;4.80;1.00;;;;;;6288864;28;20234;-55
2022/04/02 08:03:03;;;;;;;3.90;3.67;;;5.20;1.00;;;;;;6286073;28;20245;-53
2022/04/02 08:06:07;;;;;;;3.93;3.63;;;5.10;1.00;;;;;;6284165;28;20285;-52
2022/04/02 08:09:10;;;;;;;3.47;3.37;;;5.00;1.00;;;;;;6280685;28;20255;-55
2022/04/02 08:12:15;;;;;;;4.17;3.90;;;5.20;1.00;;;;;;6288937;28;20865;-53
2022/04/02 08:15:20;;;;;;;3.67;3.57;;;5.30;1.00;;;;;;6288826;28;20225;-53
2022/04/02 08:18:26;;;;;;;3.97;3.50;;;5.50;1.00;;;;;;6291080;28;20320;-54
2022/04/02 08:21:30;;;;;;;3.80;3.40;;;5.20;1.00;;;;;;6280960;28;20236;-53
2022/04/02 08:24:32;;;;;;;3.37;3.27;;;5.30;1.00;;;;;;6287440;28;20614;-53
2022/04/02 08:27:38;;;;;;;3.60;3.40;;;5.20;1.00;;;;;;6294955;28;20777;-54
2022/04/02 08:30:48;;;;;;;3.80;3.60;;;5.30;1.00;;;;;;6278155;28;20237;-53
2022/04/02 08:34:01;;;;;;;3.83;3.63;;;5.20;1.00;;;;;;6258022;28;20226;-53
2022/04/02 08:37:15;;;;;;;3.50;3.50;;;5.10;1.00;;;;;;6243624;28;20225;-53
2022/04/02 08:40:41;;;;;;;3.40;3.10;;;5.40;1.00;;;;;;6259067;28;20321;-53
2022/04/02 08:44:01;;;;;;;3.57;3.27;;;5.50;1.00;;;;;;6246423;28;20365;-53
2022/04/02 08:47:12;;;;;;;3.33;3.23;;;5.40;1.00;;;;;;6242616;28;20313;-53
2022/04/02 08:50:17;;;;;;;3.30;3.20;;;5.30;1.00;;;;;;6260489;28;20758;-55
2022/04/02 08:53:24;;;;;;;3.60;3.40;;;5.30;1.00;;;;;;6258735;28;20251;-56
2022/04/02 08:56:30;;;;;;;3.83;3.50;;;5.60;1.00;;;;;;6253951;28;20238;-55
2022/04/02 08:59:37;;;;;;;4.10;3.67;;;5.70;1.00;;;;;;6263971;28;20328;-54
2022/04/02 09:03:09;;;;;;;4.03;3.83;;;5.80;1.00;;;;;;6261122;28;20603;-54
2022/04/02 09:07:00;;;;;;;3.70;3.50;;;5.70;99.90;;;;;;6261468;28;20723;-53
2022/04/02 09:10:37;;;;;;;4.13;3.50;;;5.80;99.90;;;;;;6264902;28;20325;-54
2022/04/02 09:14:16;;;;;;;4.53;4.33;;;5.70;1.00;;;;;;6260092;28;20712;-53
2022/04/02 09:17:37;;;;;;;3.70;3.40;;;5.50;1.00;;;;;;6263728;28;20260;-53
2022/04/02 09:20:52;;;;;;;3.73;3.53;;;5.50;99.90;;;;;;6243417;28;20239;-54
2022/04/02 09:24:04;;;;;;;4.00;3.70;;;5.70;99.90;;;;;;6245214;28;20233;-53
2022/04/02 09:27:32;;;;;;;3.70;3.50;;;5.90;99.90;;;;;;6260088;28;20225;-56
2022/04/02 09:31:20;;;;;;;4.97;4.07;;;5.80;99.90;;;;;;6256400;28;20222;-54
2022/04/02 09:35:08;;;;;;;3.73;3.60;;;6.20;99.90;;;;;;6263792;28;20234;-55
2022/04/02 09:38:44;;;;;;;3.97;3.70;;;6.40;99.90;;;;;;6246961;28;20262;-53
2022/04/02 09:42:10;;;;;;;4.33;3.97;;;6.80;99.90;;;;;;6247198;28;21027;-54
2022/04/02 09:45:14;;;;;;;3.50;3.30;;;7.10;99.90;;;;;;6256681;28;20327;-53
2022/04/02 09:48:24;;;;;;;4.07;3.60;;;7.20;99.90;;;;;;6259915;28;20310;-53
2022/04/02 09:51:32;;;;;;;3.77;3.40;;;7.20;99.90;;;;;;6257312;28;20230;-53
2022/04/02 09:54:39;;;;;;;3.47;3.37;;;7.40;99.90;;;;;;6258740;28;20234;-53
2022/04/02 09:58:18;;;;;;;3.60;3.50;;;7.70;99.90;;;;;;6258022;28;20330;-53
2022/04/02 10:01:30;;;;;;;3.70;3.50;;;8.00;99.90;;;;;;6256703;28;20261;-52
2022/04/02 10:04:41;;;;;;;3.57;3.40;;;8.00;99.90;;;;;;6278165;28;20336;-54
2022/04/02 10:07:55;;;;;;;3.50;3.40;;;8.20;99.90;;;;;;6270079;28;20559;-54
2022/04/02 10:11:02;;;;;;;3.90;3.60;;;8.10;99.90;;;;;;6261384;28;20313;-55
2022/04/02 10:14:07;;;;;;;4.87;4.07;;;8.10;99.90;;;;;;6272776;28;20222;-54
2022/04/02 10:17:12;;;;;;;4.20;3.83;;;8.10;99.90;;;;;;6257140;28;20344;-54
2022/04/02 10:20:18;;;;;;;3.90;3.70;;;8.10;99.90;;;;;;6259388;28;20254;-54
2022/04/02 10:23:22;;;;;;;3.87;3.67;;;8.00;99.90;;;;;;6259139;28;20531;-55
2022/04/02 10:26:38;;;;;;;4.00;3.80;;;7.80;99.90;;;;;;6280781;28;20324;-54
2022/04/02 10:30:05;;;;;;;4.10;3.90;;;7.90;99.90;;;;;;6258759;28;20480;-54
2022/04/02 10:33:27;;;;;;;5.07;4.53;;;8.10;99.90;;;;;;6267096;28;20755;-59
2022/04/02 10:36:31;;;;;;;4.13;3.90;;;8.20;99.90;;;;;;6259368;28;20235;-54
2022/04/02 10:39:36;;;;;;;3.50;3.40;;;8.30;99.90;;;;;;6251376;28;20257;-53
2022/04/02 10:42:41;;;;;;;3.83;3.73;;;8.30;99.90;;;;;;6261785;28;23169;-55
2022/04/02 10:45:46;;;;;;;4.40;4.00;;;8.30;99.90;;;;;;6259586;28;20679;-54
2022/04/02 10:48:57;;;;;;;3.83;3.73;;;8.50;99.90;;;;;;6252205;28;20234;-53
2022/04/02 10:52:03;;;;;;;3.80;3.70;;;8.50;99.90;;;;;;6270419;28;20229;-54
2022/04/02 10:55:06;;;;;;;4.17;4.03;;;8.40;99.90;;;;;;6261286;28;20234;-53
2022/04/02 10:58:11;;;;;;;4.57;4.23;;;8.50;99.90;;;;;;6262317;28;20238;-54
2022/04/02 11:01:18;;;;;;;4.23;3.93;;;8.60;99.90;;;;;;6257661;28;20230;-55
2022/04/02 11:04:30;;;;;;;4.27;3.90;;;8.60;99.90;;;;;;6259466;28;20238;-54
2022/04/02 11:07:35;;;;;;;4.50;4.20;;;8.50;99.90;;;;;;6261789;28;20234;-53
2022/04/02 11:10:39;;;;;;;3.77;3.67;;;8.60;99.90;;;;;;6259584;28;20298;-54
2022/04/02 11:13:44;;;;;;;3.93;3.67;;;8.90;99.90;;;;;;6273550;28;20225;-55
2022/04/02 11:16:48;;;;;;;3.63;3.53;;;9.00;99.90;;;;;;6282180;28;20327;-53
2022/04/02 11:19:56;;;;;;;3.73;3.53;;;9.00;99.90;;;;;;6290677;28;20230;-55
2022/04/02 11:23:19;;;;;;;3.47;3.47;;;9.30;99.90;;;;;;6287737;28;20439;-54
2022/04/02 11:26:27;;;;;;;3.70;3.50;;;9.60;99.90;;;;;;6261972;28;20837;-52
2022/04/02 11:29:34;;;;;;;3.30;3.30;;;9.50;99.90;;;;;;6256375;28;20723;-53
2022/04/02 11:32:43;;;;;;;4.03;3.80;;;9.40;99.90;;;;;;6261419;28;20436;-54
2022/04/02 11:35:47;;;;;;;3.77;3.53;;;9.30;99.90;;;;;;6273185;28;20758;-54
2022/04/02 11:38:53;;;;;;;3.40;3.30;;;9.20;99.90;;;;;;6265309;28;20268;-54
2022/04/02 11:41:59;;;;;;;3.50;3.40;;;9.10;99.90;;;;;;6270612;28;20326;-55
2022/04/02 11:45:06;;;;;;;3.70;3.43;;;8.50;99.90;;;;;;6277923;28;20238;-54
2022/04/02 11:48:12;;;;;;;3.80;3.60;;;8.20;99.90;;;;;;6267442;28;20387;-54
2022/04/02 11:51:17;;;;;;;5.23;3.67;;;8.00;99.90;;;;;;6259268;28;20317;-54
2022/04/02 11:54:19;;;;;;;3.87;3.33;;;8.00;99.90;;;;;;6260659;28;20288;-53
2022/04/02 11:57:22;;;;;;;3.57;3.40;;;8.10;99.90;;;;;;6260539;28;20246;-53
2022/04/02 12:00:26;;;;;;;5.00;3.53;;;8.20;99.90;;;;;;6251537;28;20232;-54
2022/04/02 12:03:31;;;;;;;3.33;3.13;;;8.40;99.90;;;;;;6260525;28;20713;-53
2022/04/02 12:06:36;;;;;;;3.60;3.50;;;8.50;99.90;;;;;;6260022;28;20400;-54
2022/04/02 12:09:50;;;;;;;4.30;4.10;;;8.70;99.90;;;;;;6258860;28;20365;-54
2022/04/02 12:12:54;;;;;;;3.87;3.47;;;8.70;99.90;;;;;;6259394;28;20619;-54
2022/04/02 12:16:08;;;;;;;3.83;3.60;;;8.60;99.90;;;;;;6261672;28;20320;-54
2022/04/02 12:19:12;;;;;;;4.07;3.73;;;8.30;99.90;;;;;;6265080;28;20267;-54
2022/04/02 12:22:21;;;;;;;4.17;3.77;;;7.90;99.90;;;;;;6257353;28;20319;-54
2022/04/02 12:25:25;;;;;;;3.83;3.57;;;7.60;99.90;;;;;;6253323;28;20260;-53
2022/04/02 12:28:28;;;;;;;3.63;3.53;;;7.40;99.90;;;;;;6271163;28;20612;-53
2022/04/02 12:31:33;;;;;;;5.00;3.97;;;7.20;99.90;;;;;;6269340;28;20516;-53
2022/04/02 12:34:38;;;;;;;3.67;3.33;;;7.00;99.90;;;;;;6259896;28;20388;-54
2022/04/02 12:37:42;;;;;;;3.27;3.27;;;6.90;99.90;;;;;;6240994;28;20704;-52
2022/04/02 12:40:45;;;;;;;2.80;2.80;;;7.00;99.90;;;;;;6264981;28;20313;-52
2022/04/02 12:43:49;;;;;;;3.40;3.20;;;6.80;99.90;;;;;;6269221;28;20762;-54
2022/04/02 12:46:52;;;;;;;3.87;3.60;;;7.10;99.90;;;;;;6272849;28;20316;-54
2022/04/02 12:50:10;;;;;;;3.67;3.33;;;7.00;99.90;;;;;;6269929;28;20624;-54
2022/04/02 12:53:13;;;;;;;3.30;3.20;;;7.10;99.90;;;;;;6258691;28;20726;-55
2022/04/02 12:56:19;;;;;;;3.83;3.40;;;7.20;99.90;;;;;;6261407;28;20234;-53
2022/04/02 12:59:21;;;;;;;3.37;3.27;;;7.10;99.90;;;;;;6248868;28;20301;-53
2022/04/02 13:02:25;;;;;;;3.50;3.27;;;7.10;99.90;;;;;;6252321;28;20323;-53
2022/04/02 13:05:46;;;;;;;3.73;3.40;;;7.00;99.90;;;;;;6253791;28;20237;-53
2022/04/02 13:08:56;;;;;;;3.83;3.60;;;6.90;99.90;;;;;;6252940;28;20293;-55
2022/04/02 13:12:00;;;;;;;3.50;3.40;;;6.80;99.90;;;;;;6258595;28;20329;-54
2022/04/02 13:15:05;;;;;;;4.57;3.40;;;7.00;1.00;;;;;;6259785;28;20237;-54
2022/04/02 13:21:35;;;;;;;3.77;3.47;;;6.60;1.00;;;;;;6260863;28;20523;-55
2022/04/02 13:24:54;;;;;;;3.70;3.40;;;6.50;1.00;;;;;;6260511;28;20714;-53
2022/04/02 13:28:10;;;;;;;3.40;3.20;;;6.40;1.00;;;;;;6262572;28;20240;-55
2022/04/02 13:31:14;;;;;;;3.67;3.37;;;6.50;1.00;;;;;;6258574;28;20238;-54
2022/04/02 13:34:28;;;;;;;3.47;3.43;;;6.50;1.00;;;;;;6254433;28;20329;-54
2022/04/02 13:37:47;;;;;;;4.23;3.80;;;6.70;99.90;;;;;;6257773;28;20283;-54
2022/04/02 13:40:54;;;;;;;4.10;3.80;;;6.80;99.90;;;;;;6260883;28;20291;-55
2022/04/02 13:43:58;;;;;;;4.00;3.70;;;7.00;99.90;;;;;;6267589;28;20691;-53
2022/04/02 13:47:10;;;;;;;3.50;3.40;;;7.00;99.90;;;;;;6283018;28;20367;-54
2022/04/02 13:50:16;;;;;;;3.13;3.03;;;7.10;99.90;;;;;;6260823;28;20236;-53
2022/04/02 13:53:32;;;;;;;3.40;3.20;;;7.30;99.90;;;;;;6258546;28;20391;-54
2022/04/02 13:56:37;;;;;;;4.00;3.70;;;7.20;99.90;;;;;;6233873;28;20872;-52
2022/04/02 13:59:51;;;;;;;4.13;3.63;;;7.00;99.90;;;;;;6259069;28;20249;-53
2022/04/02 14:02:59;;;;;;;3.90;3.60;;;6.90;99.90;;;;;;6254081;28;20320;-54
2022/04/02 14:06:06;;;;;;;4.03;3.73;;;6.70;99.90;;;;;;6252337;28;20238;-55
2022/04/02 14:09:13;;;;;;;4.27;3.53;;;6.70;99.90;;;;;;6260902;28;20245;-53
2022/04/02 14:12:21;;;;;;;3.50;3.40;;;6.80;99.90;;;;;;6264410;28;20754;-55
2022/04/02 14:15:29;;;;;;;7.77;3.80;;;6.50;99.90;;;;;;6265545;28;20608;-53
2022/04/02 14:18:39;;;;;;;4.00;3.80;;;6.60;99.90;;;;;;6262303;28;20369;-53
2022/04/02 14:21:42;;;;;;;3.97;3.77;;;6.60;99.90;;;;;;6264973;28;20616;-54
2022/04/02 14:25:01;;;;;;;4.43;3.10;;;6.60;99.90;;;;;;6254050;28;20384;-53
2022/04/02 14:28:42;;;;;;;3.80;3.60;;;6.80;99.90;;;;;;6274238;28;20229;-53
2022/04/02 14:32:07;;;;;;;3.30;3.10;;;6.60;99.90;;;;;;6252708;28;20241;-53
2022/04/02 14:35:39;;;;;;;3.23;3.13;;;6.50;99.90;;;;;;6256589;28;20261;-54
2022/04/02 14:39:27;;;;;;;3.67;3.50;;;6.60;99.90;;;;;;6263997;28;20234;-53
2022/04/02 14:42:59;;;;;;;3.70;3.40;;;6.30;99.90;;;;;;6261632;28;20783;-56
2022/04/02 14:46:36;;;;;;;3.97;3.77;;;6.20;99.90;;;;;;6225704;28;20691;-53
2022/04/02 14:50:20;;;;;;;3.37;3.27;;;6.40;99.90;;;;;;6258741;28;20713;-53
2022/04/02 14:53:48;;;;;;;3.80;3.60;;;6.30;99.90;;;;;;6261222;28;20895;-53
2022/04/02 14:57:24;;;;;;;4.70;3.27;;;6.20;99.90;;;;;;6260263;28;20238;-54
2022/04/02 15:01:05;;;;;;;2.83;2.83;;;6.10;99.90;;;;;;6261390;28;21618;-54
2022/04/02 15:04:56;;;;;;;4.33;2.90;;;6.10;99.90;;;;;;6248523;28;20528;-54
2022/04/02 15:08:39;;;;;;;3.37;3.20;;;6.10;99.90;;;;;;6272698;28;20365;-55
2022/04/02 15:11:50;;;;;;;3.90;2.87;;;6.20;99.90;;;;;;6252440;28;20226;-54
2022/04/02 15:14:58;;;;;;;3.47;3.27;;;6.50;99.90;;;;;;6259781;28;20562;-53
2022/04/02 15:18:04;;;;;;;3.53;3.33;;;6.40;99.90;;;;;;6261639;28;20265;-54
2022/04/02 15:21:12;;;;;;;3.00;3.00;;;6.20;99.90;;;;;;6251047;28;20334;-54
2022/04/02 15:24:16;;;;;;;2.80;2.80;;;6.10;99.90;;;;;;6239118;28;20332;-55
2022/04/02 15:27:48;;;;;;;4.43;3.40;;;6.20;99.90;;;;;;6262952;28;20250;-54
2022/04/02 15:30:53;;;;;;;3.13;3.00;;;6.20;99.90;;;;;;6252928;28;20654;-53
2022/04/02 15:33:57;;;;;;;3.10;3.00;;;6.10;99.90;;;;;;6261669;28;20237;-53
2022/04/02 15:37:03;;;;;;;3.93;3.73;;;5.90;99.90;;;;;;6264292;28;20735;-54
2022/04/02 15:40:10;;;;;;;3.60;3.20;;;5.90;99.90;;;;;;6264108;28;20295;-54
2022/04/02 15:43:21;;;;;;;3.37;3.27;;;5.90;99.90;;;;;;6260369;28;20607;-54
2022/04/02 15:46:32;;;;;;;3.57;3.33;;;6.20;99.90;;;;;;6237765;28;20234;-53
2022/04/02 15:49:36;;;;;;;5.30;4.10;;;6.00;99.90;;;;;;6235588;28;20249;-54
2022/04/02 15:52:40;;;;;;;3.20;3.10;;;5.50;99.90;;;;;;6235900;28;20696;-53
2022/04/02 15:55:44;;;;;;;3.20;3.00;;;6.10;99.90;;;;;;6248485;28;20613;-54
2022/04/02 15:59:10;;;;;;;4.27;3.43;;;6.00;99.90;;;;;;6255045;28;20239;-53
2022/04/02 16:02:44;;;;;;;3.40;3.20;;;5.80;99.90;;;;;;6260689;28;20754;-54
2022/04/02 16:05:48;;;;;;;3.53;3.43;;;5.90;99.90;;;;;;6258944;28;20252;-53
2022/04/02 16:09:27;;;;;;;3.40;3.20;;;5.90;99.90;;;;;;6262437;28;20388;-54
2022/04/02 16:12:35;;;;;;;3.33;3.20;;;5.70;99.90;;;;;;6260752;28;20297;-53
2022/04/02 16:15:38;;;;;;;3.50;3.30;;;6.00;99.90;;;;;;6260338;28;20324;-55
2022/04/02 16:18:41;;;;;;;3.40;3.30;;;5.80;99.90;;;;;;6262372;28;20276;-53
2022/04/02 16:21:46;;;;;;;3.20;3.10;;;5.80;99.90;;;;;;6257588;28;20229;-56
2022/04/02 16:24:53;;;;;;;3.20;3.10;;;5.70;1.00;;;;;;6257885;28;20309;-54
2022/04/02 16:27:56;;;;;;;3.50;3.40;;;5.80;1.00;;;;;;6259311;28;20333;-56
2022/04/02 16:31:01;;;;;;;3.33;3.13;;;5.60;99.90;;;;;;6249603;28;20733;-53
2022/04/02 16:34:04;;;;;;;3.60;3.50;;;5.40;1.00;;;;;;6250739;28;20284;-53
2022/04/02 16:37:10;;;;;;;3.90;3.57;;;5.40;1.00;;;;;;6262098;28;20240;-53
2022/04/02 16:40:15;;;;;;;3.30;3.20;;;5.60;1.00;;;;;;6262188;28;20424;-53
2022/04/02 16:43:18;;;;;;;5.90;3.40;;;5.30;1.00;;;;;;6259737;28;20279;-53
2022/04/02 16:46:33;;;;;;;4.67;3.60;;;5.60;1.00;;;;;;6262265;28;20245;-53